Terminal Aerodrome Forecast
Issued by NWS

Home | Current Version | Previous Version | Graphics & Text | Print | Product List | Glossary On
Versions: 1 2 3 4 5 6 7 8 9 10 11 12 13 14 15 16 17 18 19 20
740
FTUS43 KABR 251605 AAA
TAFMBG
TAF AMD
KMBG 251605Z 2516/2612 13008KT P6SM BKN030
     FM251900 21009KT P6SM SCT050
     FM260100 28008KT P6SM SCT200=

USA.gov is the U.S. government's official web portal to all federal, state and local government web resources and services.